KSBM/SBM METAR and TAF weather

Enter ICAO airport designator
Station Type Date Time Source
KSBM METAR 2022/06/30 13:53 UTC NOAA

KSBM 301353Z AUTO 23014KT 10SM CLR 28/18 A2999 RMK AO2 SLP152 T02780183


Station Type Date Time Source
KSBM Decoded METAR 2022/06/30 13:53 UTC NOAA

SHEBOYGAN CO MEMORIAL AIRPORT , WI, United States (KSBM) 43-47N 87-51W 232M
Jun 30, 2022 - 09:53 AM EDT / 2022.06.30 1353 UTC
Wind: from the SW (230 degrees) at 16 MPH (14 KT):0
Visibility: 10 mile(s):0
Sky conditions: clear
Temperature: 82.0 F (27.8 C)
Dew Point: 64.9 F (18.3 C)
Relative Humidity: 56%
Pressure (altimeter): 29.99 in. Hg (1015 hPa)
ob: KSBM 301353Z AUTO 23014KT 10SM CLR 28/18 A2999 RMK AO2 SLP152 T02780183
cycle: 14

Station Type Date Time Source
KSBM TAF 2022/06/30 12:24 UTC NOAA

TAF KSBM 301121Z 3012/0112 21011KT P6SM SCT220 WS020/24040KT
FM301400 22015G30KT P6SM FEW210
FM010100 21010KT P6SM SCT250
FM010700 26009KT P6SM BKN080
FM011000 34009KT P6SM BKN100

Example: see airport list